FW5359 Weather Reports


time (UTC)temp
C
wind
direction
speed
KPH
gust
KPH
rain 1hr
cm
rain 24hr
cm
rain mn
cm
humidity
%
barometer
mb
20220811235039 23 213 0.0 3.2 0.03 0.23 0.23 93 972.3
20220811233520 23 110 1.6 6.4 0.03 0.23 0.23 92 972.8
20220811233014 23 282 0.0 1.6 0.03 0.23 0.23 92 972.3
20220811232508 23 282 0.0 1.6 0.00 0.20 0.20 91 972.2
20220811231457 23 282 0.0 3.2 0.00 0.20 0.20 91 972.1
20220811230950 23 284 0.0 3.2 0.00 0.20 0.20 91 972.0
20220811225938 23 284 1.6 4.8 0.00 0.20 0.20 90 971.6
20220811225432 23 288 0.0 3.2 0.03 0.20 0.20 91 971.7
20220811224420 23 288 3.2 12.9 0.05 0.20 0.20 89 971.6
20220811223408 23 290 6.4 14.5 0.15 0.20 0.20 88 972.0
20220811222902 23 303 6.4 19.3 0.20 0.20 0.20 88 972.3
20220811221345 23 289 6.4 20.9 0.20 0.20 0.20 88 972.6
20220811220332 24 137 3.2 12.9 0.20 0.20 0.20 88 973.0
20220811214814 25 60 4.8 12.9 0.18 0.18 0.18 85 972.8
20220811212750 30 38 4.8 14.5 0.00 0.00 0.00 67 972.5
20220811212244 31 23 3.2 14.5 0.00 0.00 0.00 61 972.6
20220811211240 32 186 6.4 19.3 0.00 0.00 0.00 53 972.2
20220811210741 33 289 3.2 14.5 0.00 0.00 0.00 48 972.2
20220811210240 34 223 3.2 8.0 0.00 0.00 0.00 45 972.1
20220811205238 34 126 3.2 8.0 0.00 0.00 0.00 45 971.9
20220811204736 34 105 3.2 9.7 0.00 0.00 0.00 45 972.0
20220811204237 35 262 3.2 9.7 0.00 0.00 0.00 45 972.1
20220811202734 33 194 3.2 11.3 0.00 0.00 0.00 46 972.1
20220811201234 33 102 4.8 16.1 0.00 0.00 0.00 46 972.3
20220811200732 34 95 4.8 16.1 0.00 0.00 0.00 45 972.4
20220811200232 34 82 6.4 14.5 0.00 0.00 0.00 44 972.5
20220811195732 35 77 4.8 16.1 0.00 0.00 0.00 44 972.5
20220811195232 35 136 4.8 19.3 0.00 0.00 0.00 44 972.6
20220811194730 35 153 4.8 19.3 0.00 0.00 0.00 45 972.7
20220811194230 35 183 4.8 12.9 0.00 0.00 0.00 46 972.7
20220811193730 34 90 6.4 17.7 0.00 0.00 0.00 46 972.8
20220811193230 33 108 6.4 19.3 0.00 0.00 0.00 48 972.8
20220811192230 34 85 3.2 14.5 0.00 0.00 0.00 46 973.1
20220811191230 34 57 4.8 17.7 0.00 0.00 0.00 46 973.1
20220811190225 34 137 3.2 11.3 0.00 0.00 0.00 45 973.2
20220811184726 35 183 3.2 9.7 0.00 0.00 0.00 44 973.6
20220811183728 34 213 3.2 8.0 0.00 0.00 0.00 46 973.7
20220811183229 34 218 3.2 11.3 0.00 0.00 0.00 46 973.8
20220811182728 33 267 3.2 11.3 0.00 0.00 0.00 46 973.9
20220811180722 33 63 4.8 14.5 0.00 0.00 0.00 46 974.2
20220811180222 34 173 3.2 12.9 0.00 0.00 0.00 46 974.3
20220811175722 34 32 1.6 8.0 0.00 0.00 0.00 45 974.3
20220811175222 34 72 1.6 4.8 0.00 0.00 0.00 45 974.4
20220811174722 34 74 1.6 4.8 0.00 0.00 0.00 45 974.5
20220811173720 34 52 4.8 11.3 0.00 0.00 0.00 46 974.7
20220811172722 34 120 3.2 12.9 0.00 0.00 0.00 46 974.9
20220811170216 33 74 3.2 8.0 0.00 0.00 0.00 48 975.2
20220811164702 33 219 1.6 6.4 0.00 0.00 0.00 49 975.4
20220811164157 33 127 3.2 11.3 0.00 0.00 0.00 51 975.4
20220811162133 33 133 3.2 9.7 0.00 0.00 0.00 51 975.4
20220811160109 32 114 3.2 11.3 0.00 0.00 0.00 51 975.4
20220811155604 32 151 3.2 11.3 0.00 0.00 0.00 51 975.4
20220811154551 32 130 3.2 11.3 0.00 0.00 0.00 53 975.4
20220811153539 31 75 1.6 8.0 0.00 0.00 0.00 55 975.4
20220811153033 31 9 3.2 9.7 0.00 0.00 0.00 56 975.4
20220811152526 31 305 3.2 9.7 0.00 0.00 0.00 58 975.4
20220811151515 30 246 1.6 8.0 0.00 0.00 0.00 60 975.4
20220811151009 30 241 1.6 8.0 0.00 0.00 0.00 60 975.3
20220811150503 30 186 1.6 6.4 0.00 0.00 0.00 61 975.3
20220811145957 30 186 1.6 6.4 0.00 0.00 0.00 63 975.4
20220811144945 29 170 1.6 8.0 0.00 0.00 0.00 66 975.3
20220811144439 28 277 3.2 8.0 0.00 0.00 0.00 67 975.4
20220811143933 28 183 3.2 8.0 0.00 0.00 0.00 69 975.4
20220811142420 27 207 1.6 8.0 0.00 0.00 0.00 72 975.4
20220811141919 27 235 1.6 8.0 0.00 0.00 0.00 72 975.5
20220811141417 27 171 1.6 8.0 0.00 0.00 0.00 74 975.5
20220811140917 27 215 1.6 4.8 0.00 0.00 0.00 73 975.4
20220811134913 26 224 1.6 3.2 0.00 0.00 0.00 78 975.2
20220811134413 26 185 0.0 3.2 0.00 0.00 0.00 79 975.2
20220811133409 25 183 1.6 4.8 0.00 0.00 0.00 80 975.1
20220811132907 25 182 0.0 1.6 0.00 0.00 0.00 82 974.9
20220811131401 24 180 0.0 1.6 0.00 0.00 0.00 84 974.9
20220811130859 24 180 0.0 1.6 0.00 0.00 0.00 84 974.8
20220811125357 23 180 0.0 1.6 0.00 0.00 0.00 85 974.8
20220811123849 23 180 0.0 1.6 0.00 0.00 0.00 84 974.7
20220811122349 23 180 0.0 0.0 0.00 0.00 0.00 86 974.6
20220811121348 23 180 0.0 1.6 0.00 0.00 0.00 86 974.7
20220811120849 23 180 0.0 1.6 0.00 0.00 0.00 86 974.7
20220811115850 23 180 0.0 0.0 0.00 0.00 0.00 85 974.6
20220811112848 23 180 0.0 0.0 0.00 0.00 0.00 84 974.6
20220811112349 23 180 0.0 0.0 0.00 0.00 0.00 83 974.6
20220811110334 24 180 0.0 1.6 0.00 0.00 0.00 83 974.4
20220811105829 24 180 0.0 1.6 0.00 0.00 0.00 84 974.5
20220811105322 24 180 0.0 0.0 0.00 0.00 0.00 84 974.5
20220811104816 24 180 0.0 0.0 0.00 0.00 0.00 83 974.5
20220811104310 24 180 0.0 0.0 0.00 0.00 0.00 83 974.5
20220811103805 24 180 0.0 0.0 0.00 0.00 0.00 83 974.6
20220811102752 24 180 0.0 3.2 0.00 0.00 0.00 83 974.6
20220811102246 24 178 0.0 3.2 0.00 0.00 0.00 83 974.7
20220811101235 24 178 0.0 3.2 0.00 0.00 0.00 82 974.8
20220811095717 24 178 0.0 3.2 0.00 0.00 0.00 82 974.9
20220811095210 24 178 0.0 3.2 0.00 0.00 0.00 82 974.8
20220811094704 24 178 0.0 1.6 0.00 0.00 0.00 82 974.8
20220811094158 25 178 0.0 1.6 0.00 0.00 0.00 82 974.8
20220811093147 25 178 0.0 3.2 0.00 0.00 0.00 81 974.8
20220811091122 25 177 0.0 4.8 0.00 0.00 0.00 80 975.1
20220811090616 25 176 0.0 3.2 0.00 0.00 0.00 80 975.2
20220811090110 25 176 0.0 3.2 0.00 0.00 0.00 80 975.1
20220811085059 25 176 0.0 3.2 0.00 0.00 0.00 79 975.1
20220811084553 25 175 0.0 4.8 0.00 0.00 0.00 79 975.2
20220811084046 25 175 1.6 4.8 0.00 0.00 0.00 79 975.4
20220811082531 25 169 1.6 6.4 0.00 0.00 0.00 78 975.6
20220811081516 25 170 0.0 3.2 0.00 0.00 0.00 78 975.4
20220811073934 25 171 0.0 3.2 0.00 0.00 0.00 77 975.6
20220811073428 25 171 0.0 6.4 0.00 0.00 0.00 77 975.6
20220811071404 25 102 0.0 1.6 0.00 0.00 0.00 75 976.0
20220811065340 26 101 0.0 1.6 0.00 0.00 0.00 75 976.1
20220811064835 26 101 0.0 6.4 0.00 0.00 0.00 75 976.2
20220811064328 26 101 0.0 6.4 0.00 0.00 0.00 74 976.3
20220811062810 26 117 1.6 4.8 0.00 0.00 0.00 74 976.2
20220811062305 26 117 1.6 4.8 0.00 0.00 0.00 74 976.3
20220811061252 26 116 1.6 6.4 0.00 0.00 0.00 74 976.2
20220811055246 26 95 3.2 8.0 0.00 0.00 0.00 73 976.2
20220811050749 26 120 3.2 11.3 0.00 0.00 0.00 71 975.9
20220811045237 27 96 4.8 19.3 0.00 0.00 0.00 70 976.1
20220811043212 27 78 6.4 20.9 0.00 0.00 0.00 68 976.4
20220811042200 27 64 6.4 16.1 0.00 0.00 0.00 67 976.5
20220811041653 27 99 6.4 17.7 0.00 0.00 0.00 67 976.4
20220811041149 28 80 8.0 19.3 0.00 0.00 0.00 66 976.4
20220811035630 28 98 8.0 29.0 0.00 0.00 0.00 66 976.2
20220811033100 28 67 3.2 9.7 0.00 0.00 0.00 62 975.6
20220811032553 28 63 3.2 11.3 0.00 0.00 0.00 62 975.5
20220811030530 28 75 3.2 12.9 0.00 0.00 0.00 61 975.2
20220811030025 28 79 1.6 6.4 0.00 0.00 0.00 61 975.3
20220811025518 28 76 3.2 9.7 0.00 0.00 0.00 61 975.1
20220811023959 29 72 4.8 16.1 0.00 0.00 0.00 61 974.7
20220811023454 29 42 4.8 16.1 0.00 0.00 0.00 61 974.6
20220811022949 29 102 6.4 16.1 0.00 0.00 0.00 60 974.4
20220811022443 29 54 6.4 16.1 0.00 0.00 0.00 60 974.3
20220811020418 29 98 6.4 20.9 0.00 0.00 0.00 60 974.3
20220811015418 29 31 4.8 22.5 0.00 0.00 0.00 61 974.2
20220811012916 28 53 4.8 14.5 0.00 0.00 0.00 64 974.1
20220811011417 30 80 6.4 19.3 0.00 0.00 0.00 61 974.0
20220811010417 30 34 9.7 22.5 0.00 0.00 0.00 58 973.7
20220811004918 31 82 8.0 22.5 0.00 0.00 0.00 54 973.3
20220811003417 32 64 8.0 20.9 0.00 0.00 0.00 51 973.2
20220811002917 33 355 8.0 24.1 0.00 0.00 0.00 49 973.2
20220811001919 36 46 3.2 9.7 0.00 0.00 0.00 36 972.8
20220811000417 36 75 1.6 6.4 0.00 0.00 0.00 35 972.5
20220810235914 36 130 1.6 9.7 0.00 0.00 0.00 36 972.5
20220810235413 36 148 3.2 9.7 0.00 0.00 0.00 36 972.4